Time;durP1;ratioP1;P1;durP2;ratioP2;P2;SDS_P1;SDS_P2;PMS_P1;PMS_P2;Temp;Humidity;BMP_temperature;BMP_pressure;BME280_temperature;BME280_humidity;BME280_pressure;Samples;Min_cycle;Max_cycle;Signal;HPM_P1;HPM_P2
2023/10/04 00:00:30;;;;;;;11.30;2.75;;;12.80;99.90;;;;;;4935111;29;20027;-90
2023/10/04 00:02:56;;;;;;;12.77;2.45;;;12.80;99.90;;;;;;4931177;28;20123;-91
2023/10/04 00:05:23;;;;;;;11.15;2.13;;;12.90;99.90;;;;;;4943916;28;20118;-90
2023/10/04 00:07:50;;;;;;;10.68;2.30;;;12.90;99.90;;;;;;4933970;28;20531;-91
2023/10/04 00:10:17;;;;;;;6.90;2.33;;;12.90;99.90;;;;;;4933781;29;20098;-91
2023/10/04 00:12:44;;;;;;;10.60;2.25;;;12.90;99.90;;;;;;4935231;29;20502;-90
2023/10/04 00:15:12;;;;;;;9.13;2.42;;;12.90;99.90;;;;;;4934230;29;20089;-90
2023/10/04 00:17:40;;;;;;;13.80;2.25;;;12.90;99.90;;;;;;4937650;28;20126;-90
2023/10/04 00:20:08;;;;;;;12.55;2.28;;;12.80;99.90;;;;;;4932023;29;20055;-91
2023/10/04 00:22:36;;;;;;;8.30;2.10;;;12.80;99.90;;;;;;4931187;29;20028;-90
2023/10/04 00:25:08;;;;;;;8.80;2.13;;;12.70;99.90;;;;;;4933887;29;20139;-92
2023/10/04 00:27:33;;;;;;;7.63;2.05;;;12.70;99.90;;;;;;4933785;29;20126;-92
2023/10/04 00:29:59;;;;;;;12.55;2.63;;;12.60;99.90;;;;;;4934113;29;20068;-90
2023/10/04 00:32:26;;;;;;;9.48;2.40;;;12.60;99.90;;;;;;4934555;29;20056;-90
2023/10/04 00:34:52;;;;;;;10.20;2.75;;;12.50;99.90;;;;;;4933872;29;20042;-90
2023/10/04 00:37:18;;;;;;;16.10;2.90;;;12.50;99.90;;;;;;4931938;29;20414;-91
2023/10/04 00:39:43;;;;;;;10.70;2.28;;;12.50;99.90;;;;;;4940346;29;20400;-91
2023/10/04 00:42:09;;;;;;;12.23;2.15;;;12.40;99.90;;;;;;4950124;29;20027;-90
2023/10/04 00:44:35;;;;;;;7.93;2.30;;;12.40;99.90;;;;;;4933321;29;20436;-90
2023/10/04 00:47:05;;;;;;;7.57;2.47;;;12.40;99.90;;;;;;4932317;29;20028;-91
2023/10/04 00:49:33;;;;;;;7.80;2.17;;;12.40;99.90;;;;;;4935934;29;20091;-90
2023/10/04 00:52:00;;;;;;;12.15;2.47;;;12.30;99.90;;;;;;4941895;29;20028;-90
2023/10/04 00:54:26;;;;;;;11.70;1.90;;;12.30;99.90;;;;;;4935017;29;20078;-91
2023/10/04 00:56:52;;;;;;;10.02;2.15;;;12.30;99.90;;;;;;4935811;29;20118;-91
2023/10/04 00:59:17;;;;;;;9.38;2.17;;;12.30;99.90;;;;;;4934412;29;20028;-90
2023/10/04 01:01:43;;;;;;;10.20;2.60;;;12.30;99.90;;;;;;4927938;29;20132;-91
2023/10/04 01:04:10;;;;;;;9.18;2.33;;;12.30;99.90;;;;;;4933186;29;20050;-91
2023/10/04 01:06:37;;;;;;;11.32;4.32;;;12.30;99.90;;;;;;4934834;29;20019;-90
2023/10/04 01:09:03;;;;;;;9.90;2.38;;;12.30;99.90;;;;;;4931203;29;20040;-92
2023/10/04 01:11:35;;;;;;;6.85;2.22;;;12.30;99.90;;;;;;4952603;28;20027;-91
2023/10/04 01:14:15;;;;;;;5.43;1.85;;;12.30;99.90;;;;;;4935266;29;20028;-91
2023/10/04 01:16:41;;;;;;;7.65;2.15;;;12.30;99.90;;;;;;4944666;29;20400;-90
2023/10/04 01:19:12;;;;;;;8.32;2.17;;;12.30;99.90;;;;;;4939548;28;20126;-91
2023/10/04 01:21:37;;;;;;;15.25;2.35;;;12.20;99.90;;;;;;4948414;28;20075;-91
2023/10/04 01:24:08;;;;;;;8.00;2.05;;;12.30;99.90;;;;;;4946595;28;20040;-90
2023/10/04 01:26:36;;;;;;;6.93;2.30;;;12.20;99.90;;;;;;4946431;29;20499;-90
2023/10/04 01:29:07;;;;;;;7.90;2.75;;;12.30;99.90;;;;;;4941677;28;20043;-91
2023/10/04 01:31:33;;;;;;;10.60;2.40;;;12.30;99.90;;;;;;4933059;29;20132;-91
2023/10/04 01:33:58;;;;;;;12.45;2.42;;;12.40;99.90;;;;;;4934410;29;20035;-91
2023/10/04 01:36:24;;;;;;;7.05;2.28;;;12.30;99.90;;;;;;4934386;29;20020;-89
2023/10/04 01:38:51;;;;;;;10.45;2.40;;;12.30;99.90;;;;;;4933871;29;20034;-91
2023/10/04 01:41:17;;;;;;;9.00;2.53;;;12.30;99.90;;;;;;4931759;29;20059;-91
2023/10/04 01:43:42;;;;;;;10.15;2.33;;;12.40;99.90;;;;;;4946547;29;20424;-91
2023/10/04 01:46:08;;;;;;;10.13;2.38;;;12.40;99.90;;;;;;4934297;29;20122;-91
2023/10/04 01:48:37;;;;;;;7.90;1.90;;;12.30;99.90;;;;;;4949141;28;20398;-92
2023/10/04 01:51:03;;;;;;;9.57;1.90;;;12.40;99.90;;;;;;4930785;29;20077;-91
2023/10/04 01:53:29;;;;;;;9.40;2.67;;;12.40;99.90;;;;;;4935114;29;20028;-90
2023/10/04 01:55:55;;;;;;;11.70;2.08;;;12.40;99.90;;;;;;4939357;29;20047;-92
2023/10/04 01:58:23;;;;;;;13.75;2.03;;;12.40;99.90;;;;;;4934183;29;20035;-93
2023/10/04 02:00:50;;;;;;;7.57;1.95;;;12.50;99.90;;;;;;4931757;29;20091;-91
2023/10/04 02:03:16;;;;;;;12.57;2.42;;;12.50;99.90;;;;;;4930718;29;20031;-91
2023/10/04 02:05:42;;;;;;;11.43;2.30;;;12.50;99.90;;;;;;4934160;29;20024;-91
2023/10/04 02:08:09;;;;;;;12.00;2.42;;;12.50;99.90;;;;;;4934631;29;20063;-91
2023/10/04 02:10:41;;;;;;;7.65;1.55;;;12.60;99.90;;;;;;4930861;29;20084;-91
2023/10/04 02:13:08;;;;;;;8.65;1.90;;;12.60;99.90;;;;;;4937943;29;20036;-91
2023/10/04 02:15:35;;;;;;;6.43;2.00;;;12.60;99.90;;;;;;4937579;29;20042;-91
2023/10/04 02:18:01;;;;;;;10.82;1.98;;;12.60;99.90;;;;;;4953168;28;20051;-92
2023/10/04 02:20:31;;;;;;;9.98;1.63;;;12.60;99.90;;;;;;4937407;29;20063;-92
2023/10/04 02:23:00;;;;;;;12.95;2.50;;;12.60;99.90;;;;;;4953592;29;20059;-91
2023/10/04 02:25:25;;;;;;;8.63;2.13;;;12.70;99.90;;;;;;4937071;29;20067;-90
2023/10/04 02:27:52;;;;;;;8.40;1.95;;;12.60;99.90;;;;;;4936702;28;20496;-90
2023/10/04 02:30:23;;;;;;;10.45;2.20;;;12.70;99.90;;;;;;4931155;29;20448;-91
2023/10/04 02:32:50;;;;;;;10.20;1.98;;;12.70;99.90;;;;;;4922036;29;20043;-92
2023/10/04 02:37:54;;;;;;;9.05;2.42;;;12.70;99.90;;;;;;4936005;29;20031;-91
2023/10/04 02:40:22;;;;;;;11.85;1.75;;;12.70;99.90;;;;;;4936211;29;20031;-91
2023/10/04 02:42:49;;;;;;;10.90;2.38;;;12.70;99.90;;;;;;4936908;29;20058;-91
2023/10/04 02:45:21;;;;;;;7.13;1.50;;;12.70;99.90;;;;;;4946214;29;20023;-91
2023/10/04 02:47:50;;;;;;;8.75;1.60;;;12.70;99.90;;;;;;4933682;29;20027;-91
2023/10/04 02:50:17;;;;;;;8.23;1.88;;;12.70;99.90;;;;;;4936933;29;20563;-91
2023/10/04 02:52:44;;;;;;;7.93;1.83;;;12.70;99.90;;;;;;4936106;29;20030;-91
2023/10/04 02:55:15;;;;;;;9.80;1.73;;;12.70;99.90;;;;;;4949765;28;20031;-90
2023/10/04 02:57:41;;;;;;;8.15;2.05;;;12.60;99.90;;;;;;4950733;28;20023;-91
2023/10/04 03:00:16;;;;;;;13.65;2.42;;;12.70;99.90;;;;;;4936616;29;20091;-92
2023/10/04 03:02:44;;;;;;;12.57;3.17;;;12.60;99.90;;;;;;4936709;29;20028;-91
2023/10/04 03:05:11;;;;;;;11.02;2.97;;;12.60;99.90;;;;;;4952663;28;20019;-90
2023/10/04 03:07:37;;;;;;;8.93;2.10;;;12.60;99.90;;;;;;4925381;29;20028;-91
2023/10/04 03:10:03;;;;;;;8.55;2.05;;;12.60;99.90;;;;;;4934841;29;20301;-89
2023/10/04 03:12:28;;;;;;;8.32;1.90;;;12.60;99.90;;;;;;4935950;29;20404;-90
2023/10/04 03:14:56;;;;;;;5.97;1.67;;;12.60;99.90;;;;;;4937075;29;20043;-90
2023/10/04 03:17:21;;;;;;;9.85;2.03;;;12.50;99.90;;;;;;4937409;29;20044;-90
2023/10/04 03:19:47;;;;;;;9.18;2.13;;;12.50;99.90;;;;;;4944070;29;20035;-91
2023/10/04 03:22:21;;;;;;;8.23;1.65;;;12.50;99.90;;;;;;4929704;29;20369;-90
2023/10/04 03:24:50;;;;;;;8.23;2.25;;;12.40;99.90;;;;;;4936567;29;20027;-91
2023/10/04 03:27:21;;;;;;;9.80;1.92;;;12.40;99.90;;;;;;4935953;29;20031;-91
2023/10/04 03:29:51;;;;;;;11.75;2.90;;;12.40;99.90;;;;;;4950842;28;20039;-91
2023/10/04 03:32:18;;;;;;;10.55;2.47;;;12.30;99.90;;;;;;4931788;29;20043;-91
2023/10/04 03:34:44;;;;;;;7.65;2.30;;;12.40;99.90;;;;;;4929917;29;20093;-91
2023/10/04 03:37:13;;;;;;;10.57;2.10;;;12.30;99.90;;;;;;4951147;28;20115;-89
2023/10/04 03:39:39;;;;;;;11.20;2.90;;;12.30;99.90;;;;;;4935781;29;20027;-90
2023/10/04 03:42:05;;;;;;;9.70;2.65;;;12.30;99.90;;;;;;4933983;29;20098;-90
2023/10/04 03:44:31;;;;;;;8.20;2.50;;;12.20;99.90;;;;;;4935274;29;20028;-90
2023/10/04 03:46:57;;;;;;;14.35;2.30;;;12.20;99.90;;;;;;4950871;28;20034;-90
2023/10/04 03:49:24;;;;;;;9.43;2.35;;;12.20;99.90;;;;;;4935272;29;20044;-90
2023/10/04 03:51:52;;;;;;;13.57;2.28;;;12.10;99.90;;;;;;4934875;29;20024;-90
2023/10/04 03:54:18;;;;;;;8.57;1.90;;;12.10;99.90;;;;;;4945214;29;20058;-91
2023/10/04 03:56:44;;;;;;;9.02;2.50;;;12.10;99.90;;;;;;4930798;29;20044;-90
2023/10/04 03:59:10;;;;;;;8.98;1.83;;;12.10;99.90;;;;;;4933399;29;20064;-90
2023/10/04 04:01:37;;;;;;;11.57;2.45;;;12.10;99.90;;;;;;4934972;29;20027;-91
2023/10/04 04:04:03;;;;;;;9.50;2.10;;;12.00;99.90;;;;;;4932874;29;20484;-90
2023/10/04 04:06:32;;;;;;;9.75;2.10;;;12.00;99.90;;;;;;4951022;29;20024;-90
2023/10/04 04:09:01;;;;;;;9.98;2.47;;;12.00;99.90;;;;;;4931629;29;20078;-90
2023/10/04 04:11:26;;;;;;;9.13;2.47;;;12.00;99.90;;;;;;4948564;28;20024;-90
2023/10/04 04:13:52;;;;;;;8.23;2.17;;;12.00;99.90;;;;;;4933929;29;20032;-90
2023/10/04 04:16:17;;;;;;;11.45;2.42;;;12.00;99.90;;;;;;4931483;29;20036;-89
2023/10/04 04:18:44;;;;;;;8.80;2.42;;;11.90;99.90;;;;;;4933624;29;20470;-90
2023/10/04 04:21:10;;;;;;;9.45;2.95;;;11.90;99.90;;;;;;4951065;29;20023;-91
2023/10/04 04:23:36;;;;;;;11.38;2.58;;;11.90;99.90;;;;;;4946541;28;20031;-90
2023/10/04 04:26:05;;;;;;;10.40;2.80;;;11.90;99.90;;;;;;4934070;29;20034;-88
2023/10/04 04:28:36;;;;;;;11.13;2.70;;;11.90;99.90;;;;;;4934970;29;20043;-90
2023/10/04 04:31:14;;;;;;;9.02;2.58;;;11.90;99.90;;;;;;4934138;29;20480;-89
2023/10/04 04:33:40;;;;;;;10.63;3.30;;;11.90;99.90;;;;;;4918547;29;20034;-90
2023/10/04 04:36:09;;;;;;;11.50;2.97;;;11.80;99.90;;;;;;4947090;28;20039;-90
2023/10/04 04:38:38;;;;;;;12.68;3.28;;;11.80;99.90;;;;;;4949212;28;20031;-90
2023/10/04 04:41:05;;;;;;;13.88;2.95;;;11.80;99.90;;;;;;4931195;29;20031;-90
2023/10/04 04:43:36;;;;;;;17.77;2.83;;;11.80;99.90;;;;;;4931822;29;20024;-90
2023/10/04 04:46:06;;;;;;;11.38;2.58;;;11.80;99.90;;;;;;4935759;29;20496;-90
2023/10/04 04:48:35;;;;;;;10.60;2.72;;;11.70;99.90;;;;;;4935755;29;20495;-89
2023/10/04 04:51:10;;;;;;;12.93;3.25;;;11.70;99.90;;;;;;4933479;29;20032;-91
2023/10/04 04:53:40;;;;;;;17.05;4.03;;;11.70;99.90;;;;;;4950268;28;20019;-91
2023/10/04 04:56:10;;;;;;;11.07;3.20;;;11.70;99.90;;;;;;4947193;29;20032;-90
2023/10/04 04:58:36;;;;;;;11.73;3.15;;;11.60;99.90;;;;;;4947231;28;20020;-89
2023/10/04 05:01:03;;;;;;;12.68;3.55;;;11.60;99.90;;;;;;4939273;29;20071;-90
2023/10/04 05:03:28;;;;;;;9.02;2.92;;;11.50;99.90;;;;;;4927991;29;20046;-90
2023/10/04 05:05:55;;;;;;;9.48;3.17;;;11.50;99.90;;;;;;4935670;28;20446;-91
2023/10/04 05:08:22;;;;;;;9.52;3.25;;;11.50;99.90;;;;;;4929951;29;20115;-91
2023/10/04 05:10:51;;;;;;;14.02;3.78;;;11.40;99.90;;;;;;4931868;29;20425;-91
2023/10/04 05:13:22;;;;;;;11.20;3.97;;;11.40;99.90;;;;;;4928488;29;20032;-91
2023/10/04 05:15:49;;;;;;;12.63;3.53;;;11.40;99.90;;;;;;4922045;29;20025;-90
2023/10/04 05:18:16;;;;;;;15.20;3.70;;;11.40;99.90;;;;;;4944940;28;20043;-91
2023/10/04 05:20:50;;;;;;;15.32;4.35;;;11.40;99.90;;;;;;4933603;29;20057;-90
2023/10/04 05:23:17;;;;;;;13.80;4.38;;;11.40;99.90;;;;;;4949516;28;20086;-90
2023/10/04 05:25:43;;;;;;;16.45;4.50;;;11.40;99.90;;;;;;4942869;28;20028;-92
2023/10/04 05:28:11;;;;;;;15.13;4.20;;;11.40;99.90;;;;;;4931537;29;20036;-91
2023/10/04 05:30:37;;;;;;;15.52;4.40;;;11.40;99.90;;;;;;4930978;29;20039;-90
2023/10/04 05:33:03;;;;;;;11.85;3.45;;;11.40;99.90;;;;;;4934852;29;20034;-91
2023/10/04 05:35:29;;;;;;;18.27;4.75;;;11.40;99.90;;;;;;4934840;29;20024;-93
2023/10/04 05:37:55;;;;;;;14.70;3.80;;;11.40;99.90;;;;;;4947016;28;20034;-92
2023/10/04 05:40:27;;;;;;;17.23;4.80;;;11.40;99.90;;;;;;4929331;29;20039;-92
2023/10/04 05:42:54;;;;;;;47.03;15.60;;;11.40;99.90;;;;;;4929751;29;20035;-90
2023/10/04 05:45:23;;;;;;;20.00;7.47;;;11.40;99.90;;;;;;4947849;28;20039;-92
2023/10/04 05:47:50;;;;;;;16.05;4.82;;;11.40;99.90;;;;;;4955260;28;20119;-92
2023/10/04 05:50:23;;;;;;;15.93;5.75;;;11.50;99.90;;;;;;4931938;29;20036;-91
2023/10/04 05:53:00;;;;;;;13.70;4.43;;;11.40;99.90;;;;;;4934360;29;20083;-91
2023/10/04 05:55:26;;;;;;;19.70;4.22;;;11.50;99.90;;;;;;4933490;29;20082;-91
2023/10/04 05:57:52;;;;;;;12.15;4.07;;;11.50;99.90;;;;;;4931985;29;20497;-91
2023/10/04 06:00:23;;;;;;;17.20;3.88;;;11.50;99.90;;;;;;4938159;29;20516;-91
2023/10/04 06:02:50;;;;;;;13.73;4.05;;;11.50;99.90;;;;;;4932998;29;20028;-91
2023/10/04 06:05:16;;;;;;;15.40;5.03;;;11.40;99.90;;;;;;4934784;29;20491;-91
2023/10/04 06:07:43;;;;;;;14.35;4.28;;;11.50;99.90;;;;;;4931076;29;20440;-91
2023/10/04 06:10:11;;;;;;;12.57;3.70;;;11.40;99.90;;;;;;4937219;29;20110;-91
2023/10/04 06:12:38;;;;;;;23.20;6.85;;;11.40;99.90;;;;;;4937364;29;20031;-90
2023/10/04 06:15:04;;;;;;;13.43;4.18;;;11.40;99.90;;;;;;4936729;29;20031;-89
2023/10/04 06:17:31;;;;;;;19.50;4.85;;;11.40;99.90;;;;;;4935958;29;20051;-89
2023/10/04 06:19:57;;;;;;;16.92;5.40;;;11.40;99.90;;;;;;4936529;29;20034;-90
2023/10/04 06:22:22;;;;;;;12.55;4.30;;;11.40;99.90;;;;;;4936745;29;20032;-90
2023/10/04 06:24:49;;;;;;;17.35;5.00;;;11.40;99.90;;;;;;4952589;28;20035;-89
2023/10/04 06:27:15;;;;;;;16.90;4.88;;;11.50;99.90;;;;;;4939312;29;20039;-90
2023/10/04 06:29:41;;;;;;;14.35;5.13;;;11.50;99.90;;;;;;4940663;28;20046;-90
2023/10/04 06:32:07;;;;;;;15.85;5.40;;;11.50;99.90;;;;;;4942874;29;20483;-90
2023/10/04 06:34:32;;;;;;;14.45;4.90;;;11.50;99.90;;;;;;4951507;28;20118;-91
2023/10/04 06:36:58;;;;;;;13.20;4.82;;;11.60;99.90;;;;;;4934994;29;20031;-91
2023/10/04 06:39:23;;;;;;;13.88;5.57;;;11.50;99.90;;;;;;4944839;28;20076;-90
2023/10/04 06:41:49;;;;;;;18.58;5.53;;;11.60;99.90;;;;;;4928487;28;20078;-90
2023/10/04 06:44:14;;;;;;;14.10;5.10;;;11.60;99.90;;;;;;4952051;28;20062;-90
2023/10/04 06:46:40;;;;;;;19.88;5.18;;;11.70;99.90;;;;;;4935954;29;20084;-89
2023/10/04 06:49:05;;;;;;;14.75;5.10;;;11.70;99.90;;;;;;4934854;29;20396;-91
2023/10/04 06:51:31;;;;;;;14.73;4.13;;;11.80;99.90;;;;;;4935474;29;20051;-90
2023/10/04 06:53:58;;;;;;;12.25;4.05;;;11.80;99.90;;;;;;4936198;29;20035;-89
2023/10/04 06:56:24;;;;;;;20.13;5.05;;;11.80;99.90;;;;;;4949575;28;20028;-90
2023/10/04 06:58:50;;;;;;;16.00;5.15;;;11.90;99.90;;;;;;4940573;29;20485;-90
2023/10/04 07:01:16;;;;;;;18.10;4.95;;;12.00;99.90;;;;;;4950135;28;20055;-89
2023/10/04 07:03:43;;;;;;;15.30;4.93;;;12.00;99.90;;;;;;4934101;29;20496;-88
2023/10/04 07:06:09;;;;;;;12.90;4.25;;;12.10;99.90;;;;;;4937373;29;20024;-89
2023/10/04 07:08:35;;;;;;;14.95;4.32;;;12.20;99.90;;;;;;4937218;29;20039;-89
2023/10/04 07:11:03;;;;;;;13.13;4.28;;;12.30;99.90;;;;;;4938315;29;20043;-88
2023/10/04 07:13:32;;;;;;;15.75;4.22;;;12.30;99.90;;;;;;4927785;29;20039;-89
2023/10/04 07:15:58;;;;;;;12.63;4.70;;;12.40;99.90;;;;;;4931444;29;20031;-87
2023/10/04 07:18:23;;;;;;;18.33;4.40;;;12.50;99.90;;;;;;4929483;29;20063;-88
2023/10/04 07:20:49;;;;;;;13.05;4.53;;;12.50;99.90;;;;;;4948484;29;20067;-88
2023/10/04 07:23:16;;;;;;;13.05;3.60;;;12.60;99.90;;;;;;4925507;29;20499;-89
2023/10/04 07:25:44;;;;;;;11.18;4.13;;;12.70;99.90;;;;;;4946570;28;20044;-87
2023/10/04 07:28:11;;;;;;;11.50;3.92;;;12.80;99.90;;;;;;4935038;29;20027;-88
2023/10/04 07:30:37;;;;;;;15.25;4.78;;;12.90;99.90;;;;;;4935313;29;20112;-88
2023/10/04 07:33:04;;;;;;;14.75;4.30;;;13.00;99.90;;;;;;4946334;28;20399;-87
2023/10/04 07:35:31;;;;;;;9.32;3.63;;;13.00;99.90;;;;;;4934987;29;20114;-89
2023/10/04 07:37:58;;;;;;;15.93;4.20;;;13.10;99.90;;;;;;4932331;29;20038;-89
2023/10/04 07:40:25;;;;;;;13.15;4.15;;;13.20;99.90;;;;;;4929076;29;20032;-89
2023/10/04 07:42:54;;;;;;;16.90;5.25;;;13.30;99.90;;;;;;4934443;29;20028;-88
2023/10/04 07:45:30;;;;;;;19.70;4.82;;;13.40;99.90;;;;;;4950658;28;20091;-88
2023/10/04 07:47:56;;;;;;;18.02;4.20;;;13.50;99.90;;;;;;4947944;29;20575;-88
2023/10/04 07:50:25;;;;;;;14.07;4.93;;;13.60;99.90;;;;;;4929745;29;20044;-89
2023/10/04 07:52:58;;;;;;;12.30;4.05;;;13.70;99.90;;;;;;4933204;28;20098;-89
2023/10/04 07:55:25;;;;;;;11.30;3.88;;;13.80;99.90;;;;;;4948850;29;20024;-89
2023/10/04 07:57:53;;;;;;;13.57;3.50;;;13.90;99.90;;;;;;4947486;29;20032;-87
2023/10/04 08:00:20;;;;;;;15.68;3.45;;;14.00;99.90;;;;;;4939207;28;20091;-89
2023/10/04 08:02:51;;;;;;;13.65;4.53;;;14.10;99.90;;;;;;4930531;29;20503;-88
2023/10/04 08:05:25;;;;;;;14.10;3.00;;;14.20;99.90;;;;;;4933326;29;20032;-90
2023/10/04 08:07:52;;;;;;;16.40;3.25;;;14.20;99.90;;;;;;4934672;29;20023;-93
2023/10/04 08:10:23;;;;;;;16.67;3.25;;;14.30;99.90;;;;;;4928708;29;20644;-92
2023/10/04 08:12:51;;;;;;;19.60;4.57;;;14.40;99.90;;;;;;4948896;28;20028;-95
2023/10/04 08:15:19;;;;;;;14.25;4.22;;;14.40;99.90;;;;;;4958336;29;20043;-93
2023/10/04 08:17:48;;;;;;;11.13;3.58;;;14.50;99.90;;;;;;4935070;29;20035;-95
2023/10/04 08:20:16;;;;;;;14.07;3.30;;;14.60;99.90;;;;;;4932524;29;20071;-94
2023/10/04 08:22:43;;;;;;;12.23;2.92;;;14.70;99.90;;;;;;4947117;29;20031;-96
2023/10/04 08:25:13;;;;;;;18.70;3.50;;;14.80;99.90;;;;;;4935657;29;20043;-94
2023/10/04 08:27:39;;;;;;;13.65;3.75;;;14.90;99.90;;;;;;4932992;29;20023;-88
2023/10/04 08:30:12;;;;;;;13.55;3.15;;;14.90;99.90;;;;;;4946841;28;20042;-88
2023/10/04 08:32:43;;;;;;;17.05;3.60;;;15.00;99.90;;;;;;4923180;29;20477;-88
2023/10/04 08:35:21;;;;;;;15.43;3.40;;;15.10;99.90;;;;;;4928766;29;20028;-87
2023/10/04 08:37:48;;;;;;;12.13;3.05;;;15.10;99.90;;;;;;4934911;29;20119;-87
2023/10/04 08:40:18;;;;;;;13.63;3.05;;;15.20;99.90;;;;;;4931339;29;20493;-87
2023/10/04 08:42:44;;;;;;;10.30;3.45;;;15.20;99.90;;;;;;4946635;29;20036;-88
2023/10/04 08:45:10;;;;;;;7.85;2.42;;;15.30;99.90;;;;;;4932930;29;20669;-88
2023/10/04 08:47:38;;;;;;;13.68;2.60;;;15.30;99.90;;;;;;4923887;29;20024;-88
2023/10/04 08:50:09;;;;;;;15.35;2.90;;;15.30;99.90;;;;;;4930505;29;20040;-88
2023/10/04 08:52:36;;;;;;;14.30;2.85;;;15.40;99.90;;;;;;4944150;28;20062;-88
2023/10/04 08:55:07;;;;;;;11.13;2.53;;;15.40;99.90;;;;;;4935467;29;20031;-89
2023/10/04 08:57:36;;;;;;;13.68;3.40;;;15.40;99.90;;;;;;4923364;29;20510;-88
2023/10/04 09:00:06;;;;;;;14.75;2.88;;;15.40;99.90;;;;;;4933351;29;20032;-88
2023/10/04 09:02:33;;;;;;;15.98;3.80;;;15.40;99.90;;;;;;4932599;29;20074;-88
2023/10/04 09:04:59;;;;;;;14.18;2.45;;;15.50;99.90;;;;;;4933284;29;20063;-88
2023/10/04 09:07:25;;;;;;;13.38;3.63;;;15.50;99.90;;;;;;4935108;29;20111;-88
2023/10/04 09:09:56;;;;;;;13.32;2.63;;;15.60;99.90;;;;;;4933695;29;20047;-87
2023/10/04 09:12:21;;;;;;;11.07;2.83;;;15.60;99.90;;;;;;4940257;29;20161;-89
2023/10/04 09:14:47;;;;;;;11.70;2.40;;;15.60;99.90;;;;;;4934074;29;20035;-87
2023/10/04 09:17:17;;;;;;;12.57;2.88;;;15.70;99.90;;;;;;4948524;29;20052;-88
2023/10/04 09:19:45;;;;;;;9.60;2.38;;;15.70;99.90;;;;;;4945931;29;20901;-88
2023/10/04 09:22:11;;;;;;;12.15;2.95;;;15.80;99.90;;;;;;4937950;29;20026;-88
2023/10/04 09:24:56;;;;;;;17.05;2.67;;;15.80;99.90;;;;;;4937441;29;20032;-88
2023/10/04 09:27:22;;;;;;;12.35;3.05;;;15.90;99.90;;;;;;4938733;29;20031;-95
2023/10/04 09:29:48;;;;;;;12.85;2.20;;;16.00;99.90;;;;;;4935216;28;20064;-91
2023/10/04 09:32:14;;;;;;;9.60;2.17;;;16.10;99.90;;;;;;4948967;29;20119;-93
2023/10/04 09:34:53;;;;;;;8.32;2.58;;;16.20;99.90;;;;;;4938275;29;20484;-88
2023/10/04 09:37:21;;;;;;;11.93;2.92;;;16.20;99.90;;;;;;4932328;28;20850;-88
2023/10/04 09:39:46;;;;;;;9.50;2.55;;;16.40;99.90;;;;;;4950379;29;20023;-87
2023/10/04 09:42:14;;;;;;;14.30;3.47;;;16.50;99.90;;;;;;4953597;29;20575;-87
2023/10/04 09:44:40;;;;;;;14.77;2.78;;;16.50;99.90;;;;;;4933526;29;20489;-87
2023/10/04 09:47:07;;;;;;;13.07;3.40;;;16.50;99.90;;;;;;4937053;29;20027;-88
2023/10/04 09:49:35;;;;;;;14.85;3.55;;;16.50;99.90;;;;;;4936673;29;20064;-88
2023/10/04 09:52:12;;;;;;;10.82;2.60;;;16.50;99.90;;;;;;4927493;29;20023;-88
2023/10/04 09:54:38;;;;;;;14.43;2.55;;;16.50;99.90;;;;;;4952101;29;20143;-88
2023/10/04 09:57:09;;;;;;;14.75;3.15;;;16.60;99.90;;;;;;4949867;29;20115;-88
2023/10/04 09:59:37;;;;;;;11.82;3.20;;;16.70;99.90;;;;;;4937402;29;20078;-89
2023/10/04 10:02:03;;;;;;;12.60;2.70;;;16.70;99.90;;;;;;4936823;29;20106;-87
2023/10/04 10:04:31;;;;;;;10.15;2.13;;;16.80;99.90;;;;;;4932088;29;20083;-88
2023/10/04 10:07:18;;;;;;;12.15;3.67;;;16.90;99.90;;;;;;4929909;29;20040;-90
2023/10/04 10:10:04;;;;;;;13.13;3.17;;;16.90;99.90;;;;;;4947310;28;20043;-92
2023/10/04 10:12:31;;;;;;;13.30;2.85;;;16.90;99.90;;;;;;4933802;29;20035;-87
2023/10/04 10:15:01;;;;;;;14.60;3.72;;;16.90;99.90;;;;;;4935469;29;20029;-87
2023/10/04 10:17:31;;;;;;;11.15;3.10;;;16.90;99.90;;;;;;4933782;29;20044;-87
2023/10/04 10:19:57;;;;;;;12.73;3.58;;;16.90;99.90;;;;;;4931219;29;20496;-87
2023/10/04 10:22:23;;;;;;;11.20;2.88;;;17.00;99.90;;;;;;4926742;29;20035;-87
2023/10/04 10:24:59;;;;;;;10.10;2.58;;;17.00;99.90;;;;;;4942388;28;20024;-87
2023/10/04 10:27:28;;;;;;;10.35;2.42;;;17.10;99.90;;;;;;4928546;29;21194;-88
2023/10/04 10:29:57;;;;;;;13.60;2.97;;;17.30;99.90;;;;;;4932064;29;20069;-87
2023/10/04 10:32:23;;;;;;;15.43;2.88;;;17.40;99.90;;;;;;4935763;29;20051;-87
2023/10/04 10:35:00;;;;;;;15.80;3.25;;;17.50;99.90;;;;;;4944581;28;20038;-87
2023/10/04 10:37:26;;;;;;;9.75;2.30;;;17.50;99.90;;;;;;4928269;29;20102;-86
2023/10/04 10:39:56;;;;;;;10.38;2.55;;;17.60;99.90;;;;;;4934966;29;20486;-87
2023/10/04 10:42:23;;;;;;;14.32;2.60;;;17.60;99.90;;;;;;4921323;29;20393;-87
2023/10/04 10:44:50;;;;;;;7.07;2.20;;;17.70;99.90;;;;;;4947904;28;20031;-87
2023/10/04 10:47:25;;;;;;;10.30;2.72;;;17.60;99.90;;;;;;4943266;28;20106;-87
2023/10/04 10:50:12;;;;;;;12.73;2.63;;;17.60;99.90;;;;;;4943222;28;20040;-86
2023/10/04 10:52:38;;;;;;;10.32;2.83;;;17.50;99.90;;;;;;4935499;29;20032;-86
2023/10/04 10:55:05;;;;;;;13.15;2.88;;;17.60;99.90;;;;;;4959286;28;20053;-86
2023/10/04 10:57:32;;;;;;;8.93;2.50;;;17.70;99.90;;;;;;4948240;28;20048;-86
2023/10/04 11:00:03;;;;;;;9.68;2.72;;;17.80;99.90;;;;;;4935684;28;20059;-86
2023/10/04 11:02:29;;;;;;;10.63;2.28;;;17.90;99.90;;;;;;4957678;28;20094;-86
2023/10/04 11:04:55;;;;;;;12.90;2.88;;;18.00;99.90;;;;;;4938625;28;20031;-85
2023/10/04 11:07:22;;;;;;;9.52;3.08;;;18.00;99.90;;;;;;4949547;28;20042;-87
2023/10/04 11:09:55;;;;;;;10.15;2.72;;;17.90;99.90;;;;;;4934295;29;20157;-87
2023/10/04 11:12:22;;;;;;;12.30;3.42;;;17.90;99.90;;;;;;4930147;29;20031;-86
2023/10/04 11:14:49;;;;;;;13.02;3.35;;;17.90;99.90;;;;;;4947077;28;20027;-87
2023/10/04 11:17:15;;;;;;;13.50;3.95;;;17.80;99.90;;;;;;4930295;29;20044;-87
2023/10/04 11:19:41;;;;;;;10.25;3.25;;;17.80;99.90;;;;;;4944525;28;20079;-87
2023/10/04 11:22:08;;;;;;;12.15;3.35;;;17.80;99.90;;;;;;4934031;29;20092;-86
2023/10/04 11:24:35;;;;;;;13.35;3.42;;;17.90;99.90;;;;;;4926737;29;20052;-86
2023/10/04 11:27:01;;;;;;;15.32;3.67;;;17.90;99.90;;;;;;4934894;29;20067;-86
2023/10/04 11:29:29;;;;;;;8.63;3.20;;;18.10;99.90;;;;;;4935127;29;20071;-86
2023/10/04 11:31:58;;;;;;;9.85;2.72;;;18.10;99.90;;;;;;4932156;29;20031;-86
2023/10/04 11:34:25;;;;;;;11.02;2.38;;;18.30;99.90;;;;;;4929567;29;20236;-86
2023/10/04 11:36:59;;;;;;;10.30;3.08;;;18.20;99.90;;;;;;4946233;28;20027;-87
2023/10/04 11:39:33;;;;;;;8.40;2.97;;;18.20;99.90;;;;;;4947158;29;20063;-87
2023/10/04 11:42:00;;;;;;;14.18;2.88;;;18.20;99.90;;;;;;4946944;29;20516;-87
2023/10/04 11:44:25;;;;;;;14.32;3.38;;;18.20;99.90;;;;;;4943158;28;20036;-87
2023/10/04 11:47:11;;;;;;;10.80;3.53;;;18.30;99.90;;;;;;4934288;29;20040;-87
2023/10/04 11:49:40;;;;;;;9.80;3.30;;;18.30;99.90;;;;;;4948036;28;20110;-87
2023/10/04 11:52:06;;;;;;;11.07;2.88;;;18.20;99.90;;;;;;4945474;29;20083;-87
2023/10/04 11:54:39;;;;;;;8.95;2.47;;;18.20;99.90;;;;;;4950289;28;20031;-88
2023/10/04 11:57:05;;;;;;;8.48;2.75;;;18.20;99.90;;;;;;4941624;29;20024;-87
2023/10/04 11:59:32;;;;;;;10.90;2.72;;;18.30;99.90;;;;;;4950737;29;20773;-86
2023/10/04 12:01:59;;;;;;;9.65;3.08;;;18.30;99.90;;;;;;4950674;28;20507;-87
2023/10/04 12:04:36;;;;;;;11.45;3.10;;;18.10;99.90;;;;;;5013177;28;20403;-72
2023/10/04 12:07:06;;;;;;;11.65;3.30;;;18.10;99.90;;;;;;5024768;28;20113;-72
2023/10/04 12:09:33;;;;;;;14.02;3.03;;;18.20;99.90;;;;;;5002230;28;20037;-72
2023/10/04 12:12:03;;;;;;;9.05;2.67;;;18.20;99.90;;;;;;5002600;28;20484;-72
2023/10/04 12:14:31;;;;;;;9.68;2.83;;;18.20;99.90;;;;;;5009093;28;20069;-72
2023/10/04 12:17:03;;;;;;;12.38;2.80;;;18.20;99.90;;;;;;5003126;28;20058;-72
2023/10/04 12:19:35;;;;;;;9.80;2.92;;;18.20;99.90;;;;;;4999920;28;20026;-72
2023/10/04 12:22:08;;;;;;;10.93;2.83;;;18.20;99.90;;;;;;4996576;28;20039;-72
2023/10/04 12:24:44;;;;;;;14.10;3.10;;;18.20;99.90;;;;;;5006226;28;20034;-72
2023/10/04 12:27:15;;;;;;;8.23;2.30;;;18.20;99.90;;;;;;4993383;28;20122;-73
2023/10/04 12:29:40;;;;;;;8.48;2.60;;;18.20;99.90;;;;;;5007759;28;20054;-72
2023/10/04 12:32:09;;;;;;;11.93;3.70;;;18.20;99.90;;;;;;5006025;28;20068;-72
2023/10/04 12:34:35;;;;;;;10.00;2.17;;;18.20;99.90;;;;;;5003994;28;20033;-72
2023/10/04 12:37:00;;;;;;;10.63;2.55;;;18.20;99.90;;;;;;4999379;28;20049;-73
2023/10/04 12:39:26;;;;;;;9.25;2.50;;;18.30;99.90;;;;;;5001233;28;20394;-73
2023/10/04 12:41:52;;;;;;;9.88;2.25;;;18.20;99.90;;;;;;5005625;28;20089;-73
2023/10/04 12:44:19;;;;;;;7.25;2.45;;;18.20;99.90;;;;;;4998231;28;20446;-72
2023/10/04 12:46:45;;;;;;;12.05;2.28;;;18.20;99.90;;;;;;4993338;28;20022;-73